sensor_id;sensor_type;location;lat;lon;timestamp;temperature;humidity
41644;DHT22;44236;48.098;11.582;2023-07-13T05:34:34;24.00;62.10
41644;DHT22;44236;48.098;11.582;2023-07-13T05:36:59;24.00;62.10
41644;DHT22;44236;48.098;11.582;2023-07-13T05:39:25;24.00;62.50
41644;DHT22;44236;48.098;11.582;2023-07-13T05:41:51;23.90;63.40
41644;DHT22;44236;48.098;11.582;2023-07-13T05:44:17;23.90;63.40
41644;DHT22;44236;48.098;11.582;2023-07-13T05:46:44;23.90;62.80
41644;DHT22;44236;48.098;11.582;2023-07-13T05:49:09;24.00;62.70
41644;DHT22;44236;48.098;11.582;2023-07-13T05:51:35;24.00;62.50
41644;DHT22;44236;48.098;11.582;2023-07-13T05:54:00;24.00;62.90
41644;DHT22;44236;48.098;11.582;2023-07-13T05:56:26;24.10;62.20
41644;DHT22;44236;48.098;11.582;2023-07-13T05:58:52;24.10;62.00
41644;DHT22;44236;48.098;11.582;2023-07-13T06:01:18;24.10;62.00
41644;DHT22;44236;48.098;11.582;2023-07-13T06:03:46;24.10;62.00
41644;DHT22;44236;48.098;11.582;2023-07-13T06:06:12;24.10;61.90
41644;DHT22;44236;48.098;11.582;2023-07-13T06:08:38;24.20;61.90
41644;DHT22;44236;48.098;11.582;2023-07-13T06:11:15;24.20;61.80
41644;DHT22;44236;48.098;11.582;2023-07-13T06:13:41;24.20;61.80
41644;DHT22;44236;48.098;11.582;2023-07-13T06:16:06;24.20;61.60
41644;DHT22;44236;48.098;11.582;2023-07-13T06:18:36;24.20;61.90
41644;DHT22;44236;48.098;11.582;2023-07-13T06:21:28;24.30;61.80
41644;DHT22;44236;48.098;11.582;2023-07-13T06:23:54;24.30;61.60
41644;DHT22;44236;48.098;11.582;2023-07-13T06:26:20;24.20;61.50
41644;DHT22;44236;48.098;11.582;2023-07-13T06:28:46;24.30;61.40
41644;DHT22;44236;48.098;11.582;2023-07-13T06:31:13;24.30;61.40
41644;DHT22;44236;48.098;11.582;2023-07-13T06:33:39;24.30;61.70
41644;DHT22;44236;48.098;11.582;2023-07-13T06:36:06;24.30;61.60
41644;DHT22;44236;48.098;11.582;2023-07-13T06:38:32;24.40;61.60
41644;DHT22;44236;48.098;11.582;2023-07-13T06:40:58;24.30;63.60
41644;DHT22;44236;48.098;11.582;2023-07-13T06:43:23;24.20;63.10
41644;DHT22;44236;48.098;11.582;2023-07-13T06:45:51;24.20;63.00
41644;DHT22;44236;48.098;11.582;2023-07-13T06:48:18;24.20;62.80
41644;DHT22;44236;48.098;11.582;2023-07-13T06:50:44;24.20;62.60
41644;DHT22;44236;48.098;11.582;2023-07-13T06:53:11;24.30;62.80
41644;DHT22;44236;48.098;11.582;2023-07-13T06:55:37;24.30;62.80
41644;DHT22;44236;48.098;11.582;2023-07-13T06:58:03;24.30;62.80
41644;DHT22;44236;48.098;11.582;2023-07-13T07:00:29;24.30;62.70
41644;DHT22;44236;48.098;11.582;2023-07-13T07:02:54;24.30;62.80
41644;DHT22;44236;48.098;11.582;2023-07-13T07:06:03;24.40;62.90
41644;DHT22;44236;48.098;11.582;2023-07-13T07:08:27;24.30;62.60
41644;DHT22;44236;48.098;11.582;2023-07-13T07:10:53;24.30;62.90
41644;DHT22;44236;48.098;11.582;2023-07-13T07:13:19;24.40;62.90
41644;DHT22;44236;48.098;11.582;2023-07-13T07:15:45;24.40;62.90
41644;DHT22;44236;48.098;11.582;2023-07-13T07:18:11;24.40;63.10
41644;DHT22;44236;48.098;11.582;2023-07-13T07:20:37;24.40;63.00
41644;DHT22;44236;48.098;11.582;2023-07-13T07:23:03;24.40;63.10
41644;DHT22;44236;48.098;11.582;2023-07-13T07:25:28;24.40;63.10
41644;DHT22;44236;48.098;11.582;2023-07-13T07:27:57;24.40;63.20
41644;DHT22;44236;48.098;11.582;2023-07-13T07:30:23;24.40;63.20
41644;DHT22;44236;48.098;11.582;2023-07-13T07:32:49;24.40;63.00
41644;DHT22;44236;48.098;11.582;2023-07-13T07:35:14;24.40;63.30
41644;DHT22;44236;48.098;11.582;2023-07-13T07:37:40;24.50;62.30
41644;DHT22;44236;48.098;11.582;2023-07-13T07:40:07;24.50;61.90
41644;DHT22;44236;48.098;11.582;2023-07-13T07:42:33;24.50;61.80
41644;DHT22;44236;48.098;11.582;2023-07-13T07:44:59;24.50;62.10
41644;DHT22;44236;48.098;11.582;2023-07-13T07:47:26;24.60;62.10
41644;DHT22;44236;48.098;11.582;2023-07-13T07:49:51;24.60;61.50
41644;DHT22;44236;48.098;11.582;2023-07-13T07:52:18;24.60;61.70
41644;DHT22;44236;48.098;11.582;2023-07-13T07:54:43;24.60;61.90
41644;DHT22;44236;48.098;11.582;2023-07-13T07:57:09;24.60;62.00
41644;DHT22;44236;48.098;11.582;2023-07-13T07:59:36;24.50;62.10
41644;DHT22;44236;48.098;11.582;2023-07-13T08:02:02;24.60;62.00
41644;DHT22;44236;48.098;11.582;2023-07-13T08:04:28;24.50;62.10
41644;DHT22;44236;48.098;11.582;2023-07-13T08:06:54;24.50;62.10
41644;DHT22;44236;48.098;11.582;2023-07-13T08:09:21;24.50;62.10
41644;DHT22;44236;48.098;11.582;2023-07-13T08:11:47;24.50;62.20
41644;DHT22;44236;48.098;11.582;2023-07-13T08:14:13;24.50;62.30
41644;DHT22;44236;48.098;11.582;2023-07-13T08:16:39;24.50;62.10
41644;DHT22;44236;48.098;11.582;2023-07-13T08:19:04;24.50;62.10
41644;DHT22;44236;48.098;11.582;2023-07-13T08:21:31;24.50;62.10
41644;DHT22;44236;48.098;11.582;2023-07-13T08:23:57;24.50;61.90
41644;DHT22;44236;48.098;11.582;2023-07-13T08:26:23;24.50;61.90
41644;DHT22;44236;48.098;11.582;2023-07-13T08:28:48;24.50;62.00
41644;DHT22;44236;48.098;11.582;2023-07-13T08:31:14;24.50;61.90
41644;DHT22;44236;48.098;11.582;2023-07-13T08:33:40;24.50;61.80
41644;DHT22;44236;48.098;11.582;2023-07-13T08:36:06;24.50;61.90
41644;DHT22;44236;48.098;11.582;2023-07-13T08:38:32;24.50;61.90
41644;DHT22;44236;48.098;11.582;2023-07-13T08:40:58;24.50;61.80
41644;DHT22;44236;48.098;11.582;2023-07-13T08:43:30;24.50;61.80
41644;DHT22;44236;48.098;11.582;2023-07-13T08:48:32;24.50;61.50
41644;DHT22;44236;48.098;11.582;2023-07-13T08:56:40;24.40;61.40
41644;DHT22;44236;48.098;11.582;2023-07-13T08:59:15;24.40;61.40
41644;DHT22;44236;48.098;11.582;2023-07-13T09:02:28;24.40;61.40
41644;DHT22;44236;48.098;11.582;2023-07-13T09:05:27;24.40;61.50
41644;DHT22;44236;48.098;11.582;2023-07-13T09:13:47;24.40;61.40
41644;DHT22;44236;48.098;11.582;2023-07-13T09:16:15;24.40;61.30
41644;DHT22;44236;48.098;11.582;2023-07-13T09:18:47;24.40;61.20
41644;DHT22;44236;48.098;11.582;2023-07-13T09:21:29;24.40;61.20
41644;DHT22;44236;48.098;11.582;2023-07-13T09:24:18;24.50;61.10
41644;DHT22;44236;48.098;11.582;2023-07-13T09:26:45;24.40;60.80
41644;DHT22;44236;48.098;11.582;2023-07-13T09:29:28;24.50;60.90
41644;DHT22;44236;48.098;11.582;2023-07-13T09:31:57;24.40;60.70
41644;DHT22;44236;48.098;11.582;2023-07-13T09:34:25;24.40;60.30
41644;DHT22;44236;48.098;11.582;2023-07-13T09:36:51;24.30;59.90
41644;DHT22;44236;48.098;11.582;2023-07-13T09:39:33;24.10;59.70
41644;DHT22;44236;48.098;11.582;2023-07-13T09:42:08;23.90;60.00
41644;DHT22;44236;48.098;11.582;2023-07-13T09:44:55;23.80;60.30
41644;DHT22;44236;48.098;11.582;2023-07-13T09:47:27;23.70;60.40
41644;DHT22;44236;48.098;11.582;2023-07-13T09:50:02;23.70;60.60
41644;DHT22;44236;48.098;11.582;2023-07-13T09:52:38;23.60;60.50
41644;DHT22;44236;48.098;11.582;2023-07-13T09:55:12;23.60;60.50
41644;DHT22;44236;48.098;11.582;2023-07-13T09:57:47;23.70;60.60
41644;DHT22;44236;48.098;11.582;2023-07-13T10:00:21;23.60;60.40
41644;DHT22;44236;48.098;11.582;2023-07-13T10:02:58;23.70;60.30
41644;DHT22;44236;48.098;11.582;2023-07-13T10:05:24;23.60;60.40
41644;DHT22;44236;48.098;11.582;2023-07-13T10:07:51;23.70;60.40
41644;DHT22;44236;48.098;11.582;2023-07-13T10:10:20;23.60;60.60
41644;DHT22;44236;48.098;11.582;2023-07-13T10:12:47;23.70;60.50
41644;DHT22;44236;48.098;11.582;2023-07-13T10:15:22;23.70;60.70
41644;DHT22;44236;48.098;11.582;2023-07-13T10:17:50;23.70;60.40
41644;DHT22;44236;48.098;11.582;2023-07-13T10:20:16;23.90;60.60
41644;DHT22;44236;48.098;11.582;2023-07-13T10:25:32;24.10;60.80
41644;DHT22;44236;48.098;11.582;2023-07-13T10:30:40;24.10;60.20
41644;DHT22;44236;48.098;11.582;2023-07-13T10:33:12;24.20;60.30
41644;DHT22;44236;48.098;11.582;2023-07-13T10:35:42;24.20;60.10
41644;DHT22;44236;48.098;11.582;2023-07-13T10:38:14;24.30;60.10
41644;DHT22;44236;48.098;11.582;2023-07-13T10:40:47;24.30;60.00
41644;DHT22;44236;48.098;11.582;2023-07-13T10:43:19;24.30;59.90
41644;DHT22;44236;48.098;11.582;2023-07-13T10:45:46;24.40;59.80
41644;DHT22;44236;48.098;11.582;2023-07-13T10:48:15;24.40;59.80
41644;DHT22;44236;48.098;11.582;2023-07-13T10:50:44;24.40;59.80
41644;DHT22;44236;48.098;11.582;2023-07-13T10:53:32;24.40;59.70
41644;DHT22;44236;48.098;11.582;2023-07-13T10:58:42;24.50;59.60
41644;DHT22;44236;48.098;11.582;2023-07-13T11:04:00;24.50;58.80
41644;DHT22;44236;48.098;11.582;2023-07-13T11:08:56;24.60;59.30
41644;DHT22;44236;48.098;11.582;2023-07-13T11:19:08;24.60;59.20
41644;DHT22;44236;48.098;11.582;2023-07-13T11:24:29;24.60;59.10
41644;DHT22;44236;48.098;11.582;2023-07-13T11:27:40;24.70;59.10
41644;DHT22;44236;48.098;11.582;2023-07-13T11:32:35;24.70;59.00
41644;DHT22;44236;48.098;11.582;2023-07-13T11:35:00;24.70;59.10
41644;DHT22;44236;48.098;11.582;2023-07-13T11:37:27;24.70;58.70
41644;DHT22;44236;48.098;11.582;2023-07-13T11:39:54;24.70;58.50
41644;DHT22;44236;48.098;11.582;2023-07-13T11:42:21;24.80;58.80
41644;DHT22;44236;48.098;11.582;2023-07-13T11:44:50;24.80;58.20
41644;DHT22;44236;48.098;11.582;2023-07-13T11:47:21;24.80;58.20
41644;DHT22;44236;48.098;11.582;2023-07-13T11:49:53;24.80;58.00
41644;DHT22;44236;48.098;11.582;2023-07-13T11:52:32;24.80;57.90
41644;DHT22;44236;48.098;11.582;2023-07-13T11:55:00;24.80;58.50
41644;DHT22;44236;48.098;11.582;2023-07-13T11:57:36;24.80;58.00
41644;DHT22;44236;48.098;11.582;2023-07-13T12:00:14;24.80;58.40
41644;DHT22;44236;48.098;11.582;2023-07-13T12:02:43;24.80;58.40
41644;DHT22;44236;48.098;11.582;2023-07-13T12:05:12;24.80;58.50
41644;DHT22;44236;48.098;11.582;2023-07-13T12:07:38;24.80;58.50
41644;DHT22;44236;48.098;11.582;2023-07-13T12:10:22;24.80;58.40
41644;DHT22;44236;48.098;11.582;2023-07-13T12:12:57;24.80;58.20
41644;DHT22;44236;48.098;11.582;2023-07-13T12:15:28;24.80;58.30
41644;DHT22;44236;48.098;11.582;2023-07-13T12:17:56;24.80;58.40
41644;DHT22;44236;48.098;11.582;2023-07-13T12:20:29;24.80;58.20
41644;DHT22;44236;48.098;11.582;2023-07-13T12:22:58;25.10;58.30
41644;DHT22;44236;48.098;11.582;2023-07-13T12:25:24;24.80;58.30
41644;DHT22;44236;48.098;11.582;2023-07-13T12:27:51;24.80;58.40
41644;DHT22;44236;48.098;11.582;2023-07-13T12:30:29;24.90;58.10
41644;DHT22;44236;48.098;11.582;2023-07-13T12:35:29;24.90;58.20
41644;DHT22;44236;48.098;11.582;2023-07-13T12:38:01;24.90;58.20
41644;DHT22;44236;48.098;11.582;2023-07-13T12:40:33;24.90;58.30
41644;DHT22;44236;48.098;11.582;2023-07-13T12:43:01;24.90;58.10
41644;DHT22;44236;48.098;11.582;2023-07-13T12:45:29;24.90;57.90
41644;DHT22;44236;48.098;11.582;2023-07-13T12:47:57;24.90;58.10
41644;DHT22;44236;48.098;11.582;2023-07-13T12:50:34;24.90;57.70
41644;DHT22;44236;48.098;11.582;2023-07-13T12:53:03;24.90;57.80
41644;DHT22;44236;48.098;11.582;2023-07-13T12:55:29;24.90;57.40
41644;DHT22;44236;48.098;11.582;2023-07-13T12:57:59;24.90;57.30
41644;DHT22;44236;48.098;11.582;2023-07-13T13:00:31;24.90;57.70
41644;DHT22;44236;48.098;11.582;2023-07-13T13:03:29;25.00;57.90
41644;DHT22;44236;48.098;11.582;2023-07-13T13:05:57;25.00;57.70
41644;DHT22;44236;48.098;11.582;2023-07-13T13:08:25;25.00;56.80
41644;DHT22;44236;48.098;11.582;2023-07-13T13:10:51;25.00;57.60
41644;DHT22;44236;48.098;11.582;2023-07-13T13:13:16;25.00;57.70
41644;DHT22;44236;48.098;11.582;2023-07-13T13:15:42;25.00;57.20
41644;DHT22;44236;48.098;11.582;2023-07-13T13:18:16;25.00;57.50
41644;DHT22;44236;48.098;11.582;2023-07-13T13:20:42;25.00;57.20
41644;DHT22;44236;48.098;11.582;2023-07-13T13:23:13;25.00;56.80
41644;DHT22;44236;48.098;11.582;2023-07-13T13:25:46;25.00;57.10
41644;DHT22;44236;48.098;11.582;2023-07-13T13:28:19;25.00;57.30
41644;DHT22;44236;48.098;11.582;2023-07-13T13:30:47;25.00;54.00
41644;DHT22;44236;48.098;11.582;2023-07-13T13:33:15;25.00;54.60
41644;DHT22;44236;48.098;11.582;2023-07-13T13:35:41;25.00;51.30
41644;DHT22;44236;48.098;11.582;2023-07-13T13:38:15;25.00;53.20
41644;DHT22;44236;48.098;11.582;2023-07-13T13:40:42;25.00;52.90
41644;DHT22;44236;48.098;11.582;2023-07-13T13:43:14;25.00;51.60
41644;DHT22;44236;48.098;11.582;2023-07-13T13:45:41;25.00;53.30
41644;DHT22;44236;48.098;11.582;2023-07-13T13:48:14;25.00;51.00
41644;DHT22;44236;48.098;11.582;2023-07-13T13:50:40;25.00;49.80
41644;DHT22;44236;48.098;11.582;2023-07-13T13:53:12;25.00;48.40
41644;DHT22;44236;48.098;11.582;2023-07-13T13:55:39;25.00;48.10
41644;DHT22;44236;48.098;11.582;2023-07-13T13:58:08;25.00;48.30
41644;DHT22;44236;48.098;11.582;2023-07-13T14:00:33;24.90;47.70
41644;DHT22;44236;48.098;11.582;2023-07-13T14:02:59;24.90;47.00
41644;DHT22;44236;48.098;11.582;2023-07-13T14:05:25;24.80;48.60
41644;DHT22;44236;48.098;11.582;2023-07-13T14:07:52;24.80;47.30
41644;DHT22;44236;48.098;11.582;2023-07-13T14:10:19;24.80;47.90
41644;DHT22;44236;48.098;11.582;2023-07-13T14:12:47;24.80;48.30
41644;DHT22;44236;48.098;11.582;2023-07-13T14:15:31;24.80;47.00
41644;DHT22;44236;48.098;11.582;2023-07-13T14:17:57;24.80;46.90
41644;DHT22;44236;48.098;11.582;2023-07-13T14:20:24;24.80;48.00
41644;DHT22;44236;48.098;11.582;2023-07-13T14:22:51;24.80;47.40
41644;DHT22;44236;48.098;11.582;2023-07-13T14:25:19;24.70;47.20
41644;DHT22;44236;48.098;11.582;2023-07-13T14:27:46;24.80;47.40
41644;DHT22;44236;48.098;11.582;2023-07-13T14:30:14;24.80;47.20
41644;DHT22;44236;48.098;11.582;2023-07-13T14:32:40;24.80;48.20
41644;DHT22;44236;48.098;11.582;2023-07-13T14:35:10;24.80;47.50
41644;DHT22;44236;48.098;11.582;2023-07-13T14:37:37;24.80;48.60
41644;DHT22;44236;48.098;11.582;2023-07-13T14:40:11;24.80;47.90
41644;DHT22;44236;48.098;11.582;2023-07-13T14:42:37;24.80;46.80
41644;DHT22;44236;48.098;11.582;2023-07-13T14:45:03;24.80;48.50
41644;DHT22;44236;48.098;11.582;2023-07-13T14:47:29;24.80;49.20
41644;DHT22;44236;48.098;11.582;2023-07-13T14:49:54;24.70;51.90
41644;DHT22;44236;48.098;11.582;2023-07-13T14:52:22;24.70;53.20
41644;DHT22;44236;48.098;11.582;2023-07-13T14:54:48;24.70;54.20
41644;DHT22;44236;48.098;11.582;2023-07-13T14:57:18;24.70;54.80
41644;DHT22;44236;48.098;11.582;2023-07-13T14:59:44;24.70;54.70
41644;DHT22;44236;48.098;11.582;2023-07-13T15:04:55;24.70;54.70
41644;DHT22;44236;48.098;11.582;2023-07-13T15:07:20;24.70;51.90
41644;DHT22;44236;48.098;11.582;2023-07-13T15:09:47;24.70;53.10
41644;DHT22;44236;48.098;11.582;2023-07-13T15:12:13;24.70;51.50
41644;DHT22;44236;48.098;11.582;2023-07-13T15:14:39;24.70;53.60
41644;DHT22;44236;48.098;11.582;2023-07-13T15:17:08;24.80;51.10
41644;DHT22;44236;48.098;11.582;2023-07-13T15:19:43;24.80;53.60
41644;DHT22;44236;48.098;11.582;2023-07-13T15:22:09;24.80;53.90
41644;DHT22;44236;48.098;11.582;2023-07-13T15:24:36;24.70;52.50
41644;DHT22;44236;48.098;11.582;2023-07-13T15:27:04;24.80;53.70
41644;DHT22;44236;48.098;11.582;2023-07-13T15:29:29;24.80;54.20
41644;DHT22;44236;48.098;11.582;2023-07-13T15:31:55;24.70;53.50
41644;DHT22;44236;48.098;11.582;2023-07-13T15:34:23;24.80;53.10
41644;DHT22;44236;48.098;11.582;2023-07-13T15:36:51;24.80;53.90
41644;DHT22;44236;48.098;11.582;2023-07-13T15:39:17;24.80;54.70
41644;DHT22;44236;48.098;11.582;2023-07-13T15:41:43;24.80;53.30
41644;DHT22;44236;48.098;11.582;2023-07-13T15:44:25;24.80;53.30
41644;DHT22;44236;48.098;11.582;2023-07-13T15:46:52;24.80;52.80
41644;DHT22;44236;48.098;11.582;2023-07-13T15:49:18;24.80;52.30
41644;DHT22;44236;48.098;11.582;2023-07-13T15:51:43;24.80;51.10
41644;DHT22;44236;48.098;11.582;2023-07-13T15:54:12;24.80;51.20
41644;DHT22;44236;48.098;11.582;2023-07-13T15:56:38;24.80;49.40
41644;DHT22;44236;48.098;11.582;2023-07-13T15:59:09;24.80;48.40
41644;DHT22;44236;48.098;11.582;2023-07-13T16:01:36;24.80;49.10
41644;DHT22;44236;48.098;11.582;2023-07-13T16:04:02;24.80;49.00
41644;DHT22;44236;48.098;11.582;2023-07-13T16:06:39;24.80;50.80
41644;DHT22;44236;48.098;11.582;2023-07-13T16:09:06;24.80;50.00
41644;DHT22;44236;48.098;11.582;2023-07-13T16:11:38;24.80;50.80
41644;DHT22;44236;48.098;11.582;2023-07-13T16:14:04;24.80;51.60
41644;DHT22;44236;48.098;11.582;2023-07-13T16:16:34;24.80;49.50
41644;DHT22;44236;48.098;11.582;2023-07-13T16:19:02;24.80;50.00
41644;DHT22;44236;48.098;11.582;2023-07-13T16:21:30;24.80;49.10
41644;DHT22;44236;48.098;11.582;2023-07-13T16:23:57;24.80;48.70
41644;DHT22;44236;48.098;11.582;2023-07-13T16:26:28;24.80;48.60
41644;DHT22;44236;48.098;11.582;2023-07-13T16:31:36;24.80;49.80
41644;DHT22;44236;48.098;11.582;2023-07-13T16:34:02;24.80;49.70
41644;DHT22;44236;48.098;11.582;2023-07-13T16:36:29;24.80;49.40
41644;DHT22;44236;48.098;11.582;2023-07-13T16:38:56;24.80;49.80
41644;DHT22;44236;48.098;11.582;2023-07-13T16:41:22;24.80;49.00
41644;DHT22;44236;48.098;11.582;2023-07-13T16:43:48;24.80;48.30
41644;DHT22;44236;48.098;11.582;2023-07-13T16:46:19;24.70;49.70
41644;DHT22;44236;48.098;11.582;2023-07-13T16:48:46;24.70;48.50
41644;DHT22;44236;48.098;11.582;2023-07-13T16:51:12;24.80;50.90
41644;DHT22;44236;48.098;11.582;2023-07-13T16:53:37;24.80;49.40
41644;DHT22;44236;48.098;11.582;2023-07-13T16:56:15;24.80;51.10
41644;DHT22;44236;48.098;11.582;2023-07-13T16:58:42;24.80;48.00
41644;DHT22;44236;48.098;11.582;2023-07-13T17:01:08;24.80;47.60
41644;DHT22;44236;48.098;11.582;2023-07-13T17:03:33;24.80;47.40
41644;DHT22;44236;48.098;11.582;2023-07-13T17:06:00;24.80;46.60
41644;DHT22;44236;48.098;11.582;2023-07-13T17:08:29;24.70;46.50
41644;DHT22;44236;48.098;11.582;2023-07-13T17:10:59;24.70;46.60
41644;DHT22;44236;48.098;11.582;2023-07-13T17:13:29;24.70;46.50
41644;DHT22;44236;48.098;11.582;2023-07-13T17:15:56;24.70;46.20
41644;DHT22;44236;48.098;11.582;2023-07-13T17:18:26;24.70;46.10
41644;DHT22;44236;48.098;11.582;2023-07-13T17:20:55;24.60;46.10
41644;DHT22;44236;48.098;11.582;2023-07-13T17:23:24;24.60;46.20
41644;DHT22;44236;48.098;11.582;2023-07-13T17:25:51;24.60;46.10
41644;DHT22;44236;48.098;11.582;2023-07-13T17:28:21;24.70;48.50
41644;DHT22;44236;48.098;11.582;2023-07-13T17:30:49;24.70;47.90
41644;DHT22;44236;48.098;11.582;2023-07-13T17:33:38;24.70;46.40
41644;DHT22;44236;48.098;11.582;2023-07-13T17:36:10;24.60;47.00
41644;DHT22;44236;48.098;11.582;2023-07-13T17:38:42;24.60;46.20
41644;DHT22;44236;48.098;11.582;2023-07-13T17:41:12;24.60;46.70
41644;DHT22;44236;48.098;11.582;2023-07-13T17:43:40;24.50;46.50
41644;DHT22;44236;48.098;11.582;2023-07-13T17:46:17;24.60;46.50
41644;DHT22;44236;48.098;11.582;2023-07-13T17:48:45;24.50;46.50
41644;DHT22;44236;48.098;11.582;2023-07-13T17:51:13;24.50;46.40
41644;DHT22;44236;48.098;11.582;2023-07-13T17:53:39;24.50;46.30
41644;DHT22;44236;48.098;11.582;2023-07-13T17:56:11;24.50;46.10
41644;DHT22;44236;48.098;11.582;2023-07-13T17:58:38;24.50;46.00
41644;DHT22;44236;48.098;11.582;2023-07-13T18:01:05;24.40;46.40
41644;DHT22;44236;48.098;11.582;2023-07-13T18:03:37;24.50;46.60
41644;DHT22;44236;48.098;11.582;2023-07-13T18:06:15;24.40;46.50
41644;DHT22;44236;48.098;11.582;2023-07-13T18:08:54;24.40;46.50
41644;DHT22;44236;48.098;11.582;2023-07-13T18:11:20;24.40;46.40
41644;DHT22;44236;48.098;11.582;2023-07-13T18:13:49;24.40;46.80
41644;DHT22;44236;48.098;11.582;2023-07-13T18:16:27;24.40;46.40
41644;DHT22;44236;48.098;11.582;2023-07-13T18:18:57;24.40;46.90
41644;DHT22;44236;48.098;11.582;2023-07-13T18:21:23;24.40;46.90
41644;DHT22;44236;48.098;11.582;2023-07-13T18:23:49;24.40;46.90
41644;DHT22;44236;48.098;11.582;2023-07-13T18:26:17;24.40;47.10
41644;DHT22;44236;48.098;11.582;2023-07-13T18:28:44;24.30;47.10
41644;DHT22;44236;48.098;11.582;2023-07-13T18:31:15;24.40;47.30
41644;DHT22;44236;48.098;11.582;2023-07-13T18:33:41;24.30;47.60
41644;DHT22;44236;48.098;11.582;2023-07-13T18:36:14;24.30;47.60
41644;DHT22;44236;48.098;11.582;2023-07-13T18:38:41;24.30;47.80
41644;DHT22;44236;48.098;11.582;2023-07-13T18:41:16;24.20;47.80
41644;DHT22;44236;48.098;11.582;2023-07-13T18:43:44;24.20;48.10
41644;DHT22;44236;48.098;11.582;2023-07-13T18:48:47;24.20;48.20
41644;DHT22;44236;48.098;11.582;2023-07-13T18:51:14;24.20;48.50
41644;DHT22;44236;48.098;11.582;2023-07-13T18:53:40;24.10;48.60
41644;DHT22;44236;48.098;11.582;2023-07-13T18:56:06;24.10;48.90
41644;DHT22;44236;48.098;11.582;2023-07-13T18:58:33;24.10;49.30
41644;DHT22;44236;48.098;11.582;2023-07-13T19:01:00;24.10;49.10
41644;DHT22;44236;48.098;11.582;2023-07-13T19:03:35;24.10;49.20
41644;DHT22;44236;48.098;11.582;2023-07-13T19:06:03;24.10;49.20
41644;DHT22;44236;48.098;11.582;2023-07-13T19:08:32;24.10;49.30
41644;DHT22;44236;48.098;11.582;2023-07-13T19:10:58;24.00;49.30
41644;DHT22;44236;48.098;11.582;2023-07-13T19:13:27;24.00;49.50
41644;DHT22;44236;48.098;11.582;2023-07-13T19:15:54;24.00;49.60
41644;DHT22;44236;48.098;11.582;2023-07-13T19:18:21;24.00;49.80
41644;DHT22;44236;48.098;11.582;2023-07-13T19:20:57;24.00;49.90
41644;DHT22;44236;48.098;11.582;2023-07-13T19:23:27;24.00;49.80
41644;DHT22;44236;48.098;11.582;2023-07-13T19:28:43;24.00;50.00
41644;DHT22;44236;48.098;11.582;2023-07-13T19:31:27;23.90;49.90
41644;DHT22;44236;48.098;11.582;2023-07-13T19:33:56;24.10;50.00
41644;DHT22;44236;48.098;11.582;2023-07-13T19:36:24;24.10;50.00
41644;DHT22;44236;48.098;11.582;2023-07-13T19:38:51;24.00;50.30
41644;DHT22;44236;48.098;11.582;2023-07-13T19:41:20;24.10;50.70
41644;DHT22;44236;48.098;11.582;2023-07-13T19:43:47;24.00;51.00
41644;DHT22;44236;48.098;11.582;2023-07-13T19:46:34;24.10;51.20
41644;DHT22;44236;48.098;11.582;2023-07-13T19:49:05;24.10;51.40
41644;DHT22;44236;48.098;11.582;2023-07-13T19:51:34;24.10;51.50
41644;DHT22;44236;48.098;11.582;2023-07-13T19:54:05;24.20;51.60
41644;DHT22;44236;48.098;11.582;2023-07-13T19:56:34;24.20;51.50
41644;DHT22;44236;48.098;11.582;2023-07-13T19:59:00;24.20;51.80
41644;DHT22;44236;48.098;11.582;2023-07-13T20:01:26;24.40;51.90
41644;DHT22;44236;48.098;11.582;2023-07-13T20:03:52;24.40;51.90
41644;DHT22;44236;48.098;11.582;2023-07-13T20:06:32;24.40;52.20
41644;DHT22;44236;48.098;11.582;2023-07-13T20:09:00;24.30;52.40
41644;DHT22;44236;48.098;11.582;2023-07-13T20:11:27;24.20;53.00
41644;DHT22;44236;48.098;11.582;2023-07-13T20:13:53;24.10;53.50
41644;DHT22;44236;48.098;11.582;2023-07-13T20:16:20;24.10;53.70
41644;DHT22;44236;48.098;11.582;2023-07-13T20:18:48;24.10;54.00
41644;DHT22;44236;48.098;11.582;2023-07-13T20:21:15;24.10;54.20
41644;DHT22;44236;48.098;11.582;2023-07-13T20:23:41;24.10;54.40
41644;DHT22;44236;48.098;11.582;2023-07-13T20:26:08;24.10;54.60
41644;DHT22;44236;48.098;11.582;2023-07-13T20:28:34;24.10;54.70
41644;DHT22;44236;48.098;11.582;2023-07-13T20:31:00;24.10;54.70
41644;DHT22;44236;48.098;11.582;2023-07-13T20:33:27;24.10;54.70
41644;DHT22;44236;48.098;11.582;2023-07-13T20:36:04;24.10;54.90
41644;DHT22;44236;48.098;11.582;2023-07-13T20:38:30;24.00;55.30
41644;DHT22;44236;48.098;11.582;2023-07-13T20:40:56;23.90;55.50
41644;DHT22;44236;48.098;11.582;2023-07-13T20:43:22;23.90;55.70
41644;DHT22;44236;48.098;11.582;2023-07-13T20:45:57;23.90;55.70
41644;DHT22;44236;48.098;11.582;2023-07-13T20:48:27;24.10;55.60
41644;DHT22;44236;48.098;11.582;2023-07-13T20:50:56;24.10;55.30
41644;DHT22;44236;48.098;11.582;2023-07-13T20:53:23;24.20;55.20
41644;DHT22;44236;48.098;11.582;2023-07-13T20:55:49;24.20;55.00
41644;DHT22;44236;48.098;11.582;2023-07-13T20:58:14;24.20;54.90
41644;DHT22;44236;48.098;11.582;2023-07-13T21:00:41;24.30;54.90
41644;DHT22;44236;48.098;11.582;2023-07-13T21:03:24;24.20;55.00
41644;DHT22;44236;48.098;11.582;2023-07-13T21:05:53;24.20;55.10
41644;DHT22;44236;48.098;11.582;2023-07-13T21:08:21;24.20;55.10
41644;DHT22;44236;48.098;11.582;2023-07-13T21:10:48;24.30;54.60
41644;DHT22;44236;48.098;11.582;2023-07-13T21:13:15;24.40;54.40
41644;DHT22;44236;48.098;11.582;2023-07-13T21:15:43;24.60;54.00
41644;DHT22;44236;48.098;11.582;2023-07-13T21:18:36;24.60;53.90
41644;DHT22;44236;48.098;11.582;2023-07-13T21:21:02;24.60;53.80
41644;DHT22;44236;48.098;11.582;2023-07-13T21:23:32;24.60;53.80
41644;DHT22;44236;48.098;11.582;2023-07-13T21:26:00;24.60;53.60
41644;DHT22;44236;48.098;11.582;2023-07-13T21:28:28;24.50;53.90
41644;DHT22;44236;48.098;11.582;2023-07-13T21:30:57;24.50;53.60
41644;DHT22;44236;48.098;11.582;2023-07-13T21:33:24;24.50;53.60
41644;DHT22;44236;48.098;11.582;2023-07-13T21:35:51;24.50;53.60
41644;DHT22;44236;48.098;11.582;2023-07-13T21:38:21;24.50;53.60
41644;DHT22;44236;48.098;11.582;2023-07-13T21:40:49;24.50;53.60
41644;DHT22;44236;48.098;11.582;2023-07-13T21:43:16;24.40;53.60
41644;DHT22;44236;48.098;11.582;2023-07-13T21:45:42;24.40;53.50
41644;DHT22;44236;48.098;11.582;2023-07-13T21:48:08;24.30;53.60
41644;DHT22;44236;48.098;11.582;2023-07-13T21:50:49;24.40;53.70
41644;DHT22;44236;48.098;11.582;2023-07-13T21:53:21;24.30;53.80
41644;DHT22;44236;48.098;11.582;2023-07-13T21:55:48;24.20;53.90